Time;durP1;ratioP1;P1;durP2;ratioP2;P2;SDS_P1;SDS_P2;PMS_P1;PMS_P2;Temp;Humidity;BMP_temperature;BMP_pressure;BME280_temperature;BME280_humidity;BME280_pressure;Samples;Min_cycle;Max_cycle;Signal;HPM_P1;HPM_P2
2023/09/11 00:01:00;;;;;;;0.00;0.00;;;;;;;;;;5032054;28;20041;-79
2023/09/11 00:03:26;;;;;;;0.00;0.00;;;;;;;;;;5033033;28;20456;-81
2023/09/11 00:05:52;;;;;;;0.00;0.00;;;;;;;;;;5035765;28;20042;-80
2023/09/11 00:08:18;;;;;;;0.00;0.00;;;;;;;;;;5035369;28;20045;-80
2023/09/11 00:10:44;;;;;;;0.00;0.00;;;;;;;;;;5034040;28;20368;-80
2023/09/11 00:13:10;;;;;;;0.00;0.00;;;;;;;;;;5033929;28;20512;-79
2023/09/11 00:15:36;;;;;;;0.00;0.00;;;;;;;;;;5017758;28;20053;-80
2023/09/11 00:18:02;;;;;;;0.00;0.00;;;;;;;;;;5033774;28;20052;-80
2023/09/11 00:20:28;;;;;;;0.00;0.00;;;;;;;;;;5035213;28;20045;-80
2023/09/11 00:22:54;;;;;;;0.00;0.00;;;;;;;;;;5035097;28;20048;-80
2023/09/11 00:25:21;;;;;;;0.05;0.00;;;;;;;;;;5035057;28;20091;-80
2023/09/11 00:27:47;;;;;;;0.00;0.00;;;;;;;;;;5033534;28;20392;-80
2023/09/11 00:30:13;;;;;;;0.00;0.00;;;;;;;;;;5033692;28;20045;-80
2023/09/11 00:32:39;;;;;;;0.00;0.00;;;;;;;;;;5033508;28;20452;-80
2023/09/11 00:35:05;;;;;;;0.30;0.00;;;;;;;;;;5035186;28;20046;-80
2023/09/11 00:37:31;;;;;;;0.20;0.13;;;;;;;;;;5033741;28;20183;-80
2023/09/11 00:39:57;;;;;;;0.00;0.00;;;;;;;;;;5034439;28;20045;-80
2023/09/11 00:42:23;;;;;;;0.05;0.00;;;;;;;;;;5033782;28;20084;-81
2023/09/11 00:44:49;;;;;;;0.00;0.00;;;;;;;;;;5034604;28;20048;-80
2023/09/11 00:47:15;;;;;;;0.00;0.00;;;;;;;;;;5033690;28;20039;-80
2023/09/11 00:49:41;;;;;;;0.00;0.00;;;;;;;;;;5033127;28;20052;-81
2023/09/11 00:52:07;;;;;;;0.00;0.00;;;;;;;;;;5034709;28;20511;-81
2023/09/11 00:54:33;;;;;;;0.00;0.00;;;;;;;;;;5034422;28;20076;-80
2023/09/11 00:56:59;;;;;;;0.00;0.00;;;;;;;;;;5034430;28;20038;-81
2023/09/11 00:59:25;;;;;;;0.00;0.00;;;;;;;;;;5032689;28;20081;-80
2023/09/11 01:01:52;;;;;;;0.00;0.00;;;;;;;;;;5034601;28;20103;-81
2023/09/11 01:04:18;;;;;;;0.00;0.00;;;;;;;;;;5033961;28;20458;-80
2023/09/11 01:06:46;;;;;;;0.00;0.00;;;;;;;;;;5034499;28;20239;-80
2023/09/11 01:09:12;;;;;;;0.00;0.00;;;;;;;;;;5032680;28;20049;-81
2023/09/11 01:11:38;;;;;;;0.25;0.20;;;;;;;;;;5034362;28;20079;-81
2023/09/11 01:14:04;;;;;;;0.00;0.00;;;;;;;;;;5033680;28;20041;-81
2023/09/11 01:16:40;;;;;;;0.00;0.00;;;;;;;;;;5033642;28;20052;-80
2023/09/11 01:19:13;;;;;;;0.00;0.00;;;;;;;;;;5032863;28;20481;-80
2023/09/11 01:21:39;;;;;;;0.00;0.00;;;;;;;;;;5033143;28;20056;-80
2023/09/11 01:24:20;;;;;;;0.00;0.00;;;;;;;;;;5033937;28;20037;-80
2023/09/11 01:26:46;;;;;;;0.00;0.00;;;;;;;;;;5032630;28;20037;-81
2023/09/11 01:29:20;;;;;;;0.00;0.00;;;;;;;;;;5032284;28;20458;-80
2023/09/11 01:31:47;;;;;;;0.00;0.00;;;;;;;;;;5032611;28;20043;-81
2023/09/11 01:34:13;;;;;;;0.00;0.00;;;;;;;;;;5032172;28;20041;-80
2023/09/11 01:36:39;;;;;;;0.00;0.00;;;;;;;;;;5033793;28;20511;-80
2023/09/11 01:39:06;;;;;;;0.00;0.00;;;;;;;;;;5033430;28;20049;-81
2023/09/11 01:41:36;;;;;;;0.00;0.00;;;;;;;;;;5033793;28;20041;-81
2023/09/11 01:44:28;;;;;;;0.00;0.00;;;;;;;;;;5033448;28;20201;-80
2023/09/11 01:46:55;;;;;;;0.00;0.00;;;;;;;;;;5030810;28;20093;-80
2023/09/11 01:49:21;;;;;;;0.00;0.00;;;;;;;;;;5033277;28;20130;-81
2023/09/11 01:51:49;;;;;;;0.00;0.00;;;;;;;;;;5032271;28;20038;-80
2023/09/11 01:54:16;;;;;;;0.00;0.00;;;;;;;;;;5033169;28;20091;-80
2023/09/11 01:56:42;;;;;;;0.00;0.00;;;;;;;;;;5033286;28;20053;-80
2023/09/11 01:59:08;;;;;;;0.00;0.00;;;;;;;;;;5032770;28;20046;-80
2023/09/11 02:01:34;;;;;;;0.00;0.00;;;;;;;;;;5033347;28;20026;-80
2023/09/11 02:04:00;;;;;;;0.00;0.00;;;;;;;;;;5031757;28;20471;-80
2023/09/11 02:06:26;;;;;;;0.00;0.00;;;;;;;;;;5032015;28;20047;-80
2023/09/11 02:08:52;;;;;;;0.00;0.00;;;;;;;;;;5031594;28;20053;-80
2023/09/11 02:11:18;;;;;;;0.00;0.00;;;;;;;;;;5032855;28;20049;-79
2023/09/11 02:13:44;;;;;;;0.00;0.00;;;;;;;;;;5031555;28;20084;-80
2023/09/11 02:16:10;;;;;;;0.00;0.00;;;;;;;;;;5031695;28;20120;-80
2023/09/11 02:18:38;;;;;;;0.00;0.00;;;;;;;;;;5031567;28;20378;-80
2023/09/11 02:21:04;;;;;;;0.00;0.00;;;;;;;;;;5033030;28;20112;-80
2023/09/11 02:23:30;;;;;;;0.00;0.00;;;;;;;;;;5033123;28;20120;-80
2023/09/11 02:25:56;;;;;;;0.00;0.00;;;;;;;;;;5032405;28;20192;-80
2023/09/11 02:28:22;;;;;;;0.00;0.00;;;;;;;;;;5031682;28;20042;-81
2023/09/11 02:30:50;;;;;;;0.00;0.00;;;;;;;;;;5031513;28;20098;-80
2023/09/11 02:33:16;;;;;;;0.00;0.00;;;;;;;;;;5032176;28;20430;-80
2023/09/11 02:35:42;;;;;;;0.00;0.00;;;;;;;;;;5014725;28;20138;-80
2023/09/11 02:38:09;;;;;;;0.00;0.00;;;;;;;;;;5031547;28;20037;-80
2023/09/11 02:40:37;;;;;;;0.35;0.10;;;;;;;;;;5031093;28;20431;-80
2023/09/11 02:43:03;;;;;;;0.20;0.10;;;;;;;;;;5031354;28;20072;-80
2023/09/11 02:45:29;;;;;;;0.00;0.00;;;;;;;;;;5031231;28;20037;-80
2023/09/11 02:47:55;;;;;;;0.00;0.00;;;;;;;;;;5032605;28;20080;-80
2023/09/11 02:50:23;;;;;;;0.00;0.00;;;;;;;;;;5032355;28;20076;-80
2023/09/11 02:52:49;;;;;;;0.00;0.00;;;;;;;;;;5031528;28;20056;-80
2023/09/11 02:55:15;;;;;;;0.00;0.00;;;;;;;;;;5031103;28;20095;-81
2023/09/11 02:57:41;;;;;;;0.00;0.00;;;;;;;;;;5031072;28;20085;-80
2023/09/11 03:00:10;;;;;;;0.00;0.00;;;;;;;;;;5030978;28;20109;-80
2023/09/11 03:02:36;;;;;;;0.00;0.00;;;;;;;;;;5031248;28;20040;-80
2023/09/11 03:05:03;;;;;;;0.00;0.00;;;;;;;;;;5031278;28;20049;-80
2023/09/11 03:07:29;;;;;;;0.00;0.00;;;;;;;;;;5032730;28;20065;-80
2023/09/11 03:09:55;;;;;;;0.00;0.00;;;;;;;;;;5031992;28;20460;-80
2023/09/11 03:12:21;;;;;;;0.00;0.00;;;;;;;;;;5031168;28;20049;-80
2023/09/11 03:14:50;;;;;;;0.00;0.00;;;;;;;;;;5031210;28;20140;-80
2023/09/11 03:17:16;;;;;;;0.00;0.00;;;;;;;;;;5031557;28;20118;-81
2023/09/11 03:19:42;;;;;;;0.00;0.00;;;;;;;;;;5014430;28;20501;-81
2023/09/11 03:22:08;;;;;;;0.00;0.00;;;;;;;;;;5032457;28;20397;-81
2023/09/11 03:24:34;;;;;;;0.00;0.00;;;;;;;;;;5032343;28;20116;-80
2023/09/11 03:27:00;;;;;;;0.00;0.00;;;;;;;;;;5031004;28;20532;-80
2023/09/11 03:29:26;;;;;;;0.28;0.20;;;;;;;;;;5032290;28;20037;-81
2023/09/11 03:31:52;;;;;;;0.00;0.00;;;;;;;;;;5031715;28;20056;-81
2023/09/11 03:34:18;;;;;;;0.00;0.00;;;;;;;;;;5031590;28;20519;-80
2023/09/11 03:36:44;;;;;;;0.00;0.00;;;;;;;;;;5032577;28;20095;-80
2023/09/11 03:39:10;;;;;;;0.00;0.00;;;;;;;;;;5033776;28;20504;-80
2023/09/11 03:41:36;;;;;;;0.00;0.00;;;;;;;;;;5036033;28;20041;-80
2023/09/11 03:44:02;;;;;;;0.00;0.00;;;;;;;;;;5034792;28;20045;-80
2023/09/11 03:46:27;;;;;;;0.00;0.00;;;;;;;;;;5035818;28;20037;-80
2023/09/11 03:48:53;;;;;;;0.00;0.00;;;;;;;;;;5034970;28;20399;-80
2023/09/11 03:51:19;;;;;;;0.00;0.00;;;;;;;;;;5035582;28;20056;-80
2023/09/11 03:53:45;;;;;;;0.00;0.00;;;;;;;;;;5035744;28;20041;-80
2023/09/11 03:56:12;;;;;;;0.00;0.00;;;;;;;;;;5034249;28;20050;-81
2023/09/11 03:58:39;;;;;;;0.00;0.00;;;;;;;;;;5034341;28;20160;-80
2023/09/11 04:01:05;;;;;;;0.00;0.00;;;;;;;;;;5035437;28;20485;-80
2023/09/11 04:03:31;;;;;;;0.00;0.00;;;;;;;;;;5035918;28;20038;-80
2023/09/11 04:05:57;;;;;;;0.00;0.00;;;;;;;;;;5034208;28;20048;-79
2023/09/11 04:08:22;;;;;;;0.00;0.00;;;;;;;;;;5035583;28;20042;-80
2023/09/11 04:10:48;;;;;;;0.00;0.00;;;;;;;;;;5035316;28;20045;-80
2023/09/11 04:13:14;;;;;;;0.00;0.00;;;;;;;;;;5034221;28;20045;-80
2023/09/11 04:15:40;;;;;;;0.00;0.00;;;;;;;;;;5035275;28;20042;-80
2023/09/11 04:18:06;;;;;;;0.00;0.00;;;;;;;;;;5035310;28;20053;-80
2023/09/11 04:20:33;;;;;;;0.00;0.00;;;;;;;;;;5033404;28;20037;-79
2023/09/11 04:23:03;;;;;;;0.00;0.00;;;;;;;;;;5035436;28;20061;-80
2023/09/11 04:25:30;;;;;;;0.00;0.00;;;;;;;;;;5033764;28;20064;-80
2023/09/11 04:27:56;;;;;;;0.00;0.00;;;;;;;;;;5033869;28;20034;-80
2023/09/11 04:30:25;;;;;;;0.00;0.00;;;;;;;;;;5033732;28;20394;-80
2023/09/11 04:32:51;;;;;;;0.00;0.00;;;;;;;;;;5035157;28;20041;-83
2023/09/11 04:35:18;;;;;;;0.00;0.00;;;;;;;;;;5033547;28;20045;-83
2023/09/11 04:37:45;;;;;;;0.00;0.00;;;;;;;;;;5017466;28;20485;-83
2023/09/11 04:40:11;;;;;;;0.00;0.00;;;;;;;;;;5033423;28;20481;-81
2023/09/11 04:42:37;;;;;;;0.00;0.00;;;;;;;;;;5033674;28;20623;-81
2023/09/11 04:45:03;;;;;;;0.00;0.00;;;;;;;;;;5033640;28;20137;-81
2023/09/11 04:47:31;;;;;;;0.00;0.00;;;;;;;;;;5034829;28;20037;-80
2023/09/11 04:49:57;;;;;;;0.00;0.00;;;;;;;;;;5034633;28;20049;-81
2023/09/11 04:52:23;;;;;;;0.60;0.10;;;;;;;;;;5033262;28;20480;-81
2023/09/11 04:54:49;;;;;;;0.60;0.45;;;;;;;;;;5034732;28;20041;-81
2023/09/11 04:57:16;;;;;;;0.00;0.00;;;;;;;;;;5034375;28;20060;-81
2023/09/11 04:59:42;;;;;;;0.00;0.00;;;;;;;;;;5033582;28;20057;-80
2023/09/11 05:02:11;;;;;;;0.10;0.10;;;;;;;;;;5016517;28;20044;-80
2023/09/11 05:04:39;;;;;;;0.00;0.00;;;;;;;;;;5034368;28;20045;-79
2023/09/11 05:07:05;;;;;;;0.00;0.00;;;;;;;;;;5033109;28;20045;-80
2023/09/11 05:09:31;;;;;;;0.00;0.00;;;;;;;;;;5032949;28;20068;-80
2023/09/11 05:11:57;;;;;;;0.00;0.00;;;;;;;;;;5034155;28;20557;-80
2023/09/11 05:14:23;;;;;;;0.00;0.00;;;;;;;;;;5033210;28;20041;-80
2023/09/11 05:16:49;;;;;;;0.00;0.00;;;;;;;;;;5032641;28;20084;-80
2023/09/11 05:19:15;;;;;;;0.00;0.00;;;;;;;;;;5033015;28;20552;-83
2023/09/11 05:21:42;;;;;;;0.00;0.00;;;;;;;;;;5033938;28;20051;-80
2023/09/11 05:24:08;;;;;;;0.00;0.00;;;;;;;;;;5032787;28;20497;-80
2023/09/11 05:26:34;;;;;;;0.00;0.00;;;;;;;;;;5033877;28;20044;-80
2023/09/11 05:29:00;;;;;;;0.00;0.00;;;;;;;;;;5032765;28;20041;-80
2023/09/11 05:31:26;;;;;;;0.60;0.00;;;;;;;;;;5033484;28;20377;-80
2023/09/11 05:33:52;;;;;;;0.00;0.00;;;;;;;;;;5034327;28;20041;-80
2023/09/11 05:36:18;;;;;;;0.00;0.00;;;;;;;;;;5033641;28;20132;-80
2023/09/11 05:38:44;;;;;;;0.00;0.00;;;;;;;;;;5032650;28;20045;-80
2023/09/11 05:41:10;;;;;;;0.00;0.00;;;;;;;;;;5033619;28;20037;-80
2023/09/11 05:43:37;;;;;;;0.00;0.00;;;;;;;;;;5033788;28;20037;-80
2023/09/11 05:46:03;;;;;;;0.00;0.00;;;;;;;;;;5033437;28;20052;-81
2023/09/11 05:48:29;;;;;;;0.22;0.10;;;;;;;;;;5033881;28;20080;-80
2023/09/11 05:50:54;;;;;;;0.00;0.00;;;;;;;;;;5032008;28;20046;-81
2023/09/11 05:53:21;;;;;;;0.00;0.00;;;;;;;;;;5033641;28;20068;-80
2023/09/11 05:55:46;;;;;;;0.00;0.00;;;;;;;;;;5032280;28;20044;-81
2023/09/11 05:58:12;;;;;;;0.00;0.00;;;;;;;;;;5015503;28;20054;-80
2023/09/11 06:00:38;;;;;;;0.00;0.00;;;;;;;;;;5032870;28;20440;-80
2023/09/11 06:03:04;;;;;;;0.00;0.00;;;;;;;;;;5033396;28;20042;-80
2023/09/11 06:05:31;;;;;;;0.00;0.00;;;;;;;;;;5032020;28;20208;-80
2023/09/11 06:07:57;;;;;;;0.10;0.10;;;;;;;;;;5031965;28;20580;-80
2023/09/11 06:10:23;;;;;;;0.00;0.00;;;;;;;;;;5032171;28;20088;-80
2023/09/11 06:12:49;;;;;;;0.00;0.00;;;;;;;;;;5031774;28;20045;-80
2023/09/11 06:15:15;;;;;;;0.00;0.00;;;;;;;;;;5033197;28;20404;-80
2023/09/11 06:17:41;;;;;;;0.00;0.00;;;;;;;;;;5031787;28;20416;-80
2023/09/11 06:20:10;;;;;;;0.00;0.00;;;;;;;;;;5033314;28;20062;-80
2023/09/11 06:22:40;;;;;;;0.00;0.00;;;;;;;;;;5031865;28;20045;-79
2023/09/11 06:25:07;;;;;;;0.00;0.00;;;;;;;;;;5033134;28;20038;-81
2023/09/11 06:27:34;;;;;;;0.00;0.00;;;;;;;;;;5031611;28;20037;-80
2023/09/11 06:30:00;;;;;;;0.00;0.00;;;;;;;;;;5031442;28;20047;-80
2023/09/11 06:32:26;;;;;;;0.00;0.00;;;;;;;;;;5031261;28;20525;-82
2023/09/11 06:34:52;;;;;;;0.00;0.00;;;;;;;;;;5015044;28;20099;-82
2023/09/11 06:37:18;;;;;;;0.00;0.00;;;;;;;;;;5032598;28;20114;-82
2023/09/11 06:39:44;;;;;;;0.00;0.00;;;;;;;;;;5033085;28;20033;-82
2023/09/11 06:42:19;;;;;;;0.00;0.00;;;;;;;;;;5031435;28;20194;-81
2023/09/11 06:44:45;;;;;;;0.00;0.00;;;;;;;;;;5032864;28;20080;-81
2023/09/11 06:47:10;;;;;;;0.00;0.00;;;;;;;;;;5032519;28;20138;-81
2023/09/11 06:49:37;;;;;;;0.00;0.00;;;;;;;;;;5032550;28;20049;-82
2023/09/11 06:52:03;;;;;;;0.00;0.00;;;;;;;;;;5032539;28;20099;-85
2023/09/11 06:54:29;;;;;;;0.00;0.00;;;;;;;;;;5015282;28;20389;-82
2023/09/11 06:56:55;;;;;;;0.00;0.00;;;;;;;;;;5032366;28;20087;-84
2023/09/11 06:59:21;;;;;;;0.00;0.00;;;;;;;;;;5032233;28;20054;-80
2023/09/11 07:01:47;;;;;;;0.00;0.00;;;;;;;;;;5032510;28;20068;-82
2023/09/11 07:04:14;;;;;;;0.00;0.00;;;;;;;;;;5031455;28;20401;-82
2023/09/11 07:06:40;;;;;;;0.00;0.00;;;;;;;;;;5031170;28;20041;-82
2023/09/11 07:09:09;;;;;;;0.00;0.00;;;;;;;;;;5031184;28;20034;-81
2023/09/11 07:11:35;;;;;;;0.00;0.00;;;;;;;;;;5031055;28;20072;-80
2023/09/11 07:14:02;;;;;;;0.00;0.00;;;;;;;;;;5034838;28;20400;-81
2023/09/11 07:16:28;;;;;;;0.00;0.00;;;;;;;;;;5018875;28;20045;-82
2023/09/11 07:18:54;;;;;;;0.00;0.00;;;;;;;;;;5036347;28;20063;-81
2023/09/11 07:21:20;;;;;;;0.00;0.00;;;;;;;;;;5018961;28;20472;-82
2023/09/11 07:23:46;;;;;;;0.00;0.00;;;;;;;;;;5035102;28;20120;-81
2023/09/11 07:26:12;;;;;;;0.00;0.00;;;;;;;;;;5035324;28;20137;-81
2023/09/11 07:28:58;;;;;;;0.00;0.00;;;;;;;;;;5035076;28;20120;-81
2023/09/11 07:31:24;;;;;;;0.00;0.00;;;;;;;;;;5035304;28;20050;-81
2023/09/11 07:33:51;;;;;;;0.00;0.00;;;;;;;;;;5035154;28;20100;-81
2023/09/11 07:36:18;;;;;;;0.00;0.00;;;;;;;;;;5035001;28;20049;-82
2023/09/11 07:38:47;;;;;;;0.00;0.00;;;;;;;;;;5035956;28;20041;-82
2023/09/11 07:41:14;;;;;;;0.00;0.00;;;;;;;;;;5034791;28;20060;-82
2023/09/11 07:43:40;;;;;;;0.00;0.00;;;;;;;;;;5034909;28;20043;-82
2023/09/11 07:46:06;;;;;;;0.00;0.00;;;;;;;;;;5034871;28;20128;-82
2023/09/11 07:48:32;;;;;;;0.00;0.00;;;;;;;;;;5035821;28;20112;-82
2023/09/11 07:50:58;;;;;;;0.00;0.00;;;;;;;;;;5034440;28;20107;-81
2023/09/11 07:53:24;;;;;;;0.00;0.00;;;;;;;;;;5036177;28;20049;-82
2023/09/11 07:55:50;;;;;;;0.00;0.00;;;;;;;;;;5034977;28;20052;-82
2023/09/11 07:58:19;;;;;;;0.00;0.00;;;;;;;;;;5034418;28;20057;-82
2023/09/11 08:00:45;;;;;;;0.00;0.00;;;;;;;;;;5035009;28;20089;-82
2023/09/11 08:03:11;;;;;;;0.00;0.00;;;;;;;;;;5035376;28;20119;-83
2023/09/11 08:05:37;;;;;;;0.00;0.00;;;;;;;;;;5035422;28;20049;-86
2023/09/11 08:08:03;;;;;;;0.00;0.00;;;;;;;;;;5037744;28;20077;-87
2023/09/11 08:10:29;;;;;;;0.00;0.00;;;;;;;;;;5034806;28;20049;-83
2023/09/11 08:12:55;;;;;;;0.00;0.00;;;;;;;;;;5034703;28;20136;-84
2023/09/11 08:15:21;;;;;;;0.00;0.00;;;;;;;;;;5034617;28;20509;-83
2023/09/11 08:17:47;;;;;;;0.00;0.00;;;;;;;;;;5033852;28;20113;-83
2023/09/11 08:20:14;;;;;;;0.00;0.00;;;;;;;;;;5035265;28;20057;-83
2023/09/11 08:22:41;;;;;;;0.47;0.08;;;;;;;;;;5034105;28;20041;-84
2023/09/11 08:25:09;;;;;;;0.00;0.00;;;;;;;;;;5034727;28;20392;-83
2023/09/11 08:27:35;;;;;;;0.00;0.00;;;;;;;;;;5033838;28;20400;-83
2023/09/11 08:30:01;;;;;;;0.00;0.00;;;;;;;;;;5035191;28;20052;-83
2023/09/11 08:32:27;;;;;;;0.00;0.00;;;;;;;;;;5033668;28;20045;-83
2023/09/11 08:34:53;;;;;;;0.00;0.00;;;;;;;;;;5035141;28;20068;-82
2023/09/11 08:37:19;;;;;;;0.00;0.00;;;;;;;;;;5033747;28;20480;-84
2023/09/11 08:39:45;;;;;;;0.00;0.00;;;;;;;;;;5034922;28;20349;-83
2023/09/11 08:42:11;;;;;;;0.00;0.00;;;;;;;;;;5033764;28;20049;-84
2023/09/11 08:44:38;;;;;;;0.00;0.00;;;;;;;;;;5035127;28;20072;-84
2023/09/11 08:47:06;;;;;;;0.00;0.00;;;;;;;;;;5033879;28;20334;-84
2023/09/11 08:49:33;;;;;;;0.00;0.00;;;;;;;;;;5033400;28;20041;-83
2023/09/11 08:52:02;;;;;;;0.00;0.00;;;;;;;;;;5034841;28;20116;-83
2023/09/11 08:54:32;;;;;;;0.00;0.00;;;;;;;;;;5033341;28;20405;-83
2023/09/11 08:56:58;;;;;;;0.00;0.00;;;;;;;;;;5033380;28;20103;-84
2023/09/11 08:59:25;;;;;;;0.00;0.00;;;;;;;;;;5032970;28;20080;-84
2023/09/11 09:01:51;;;;;;;0.00;0.00;;;;;;;;;;5033106;28;20454;-84
2023/09/11 09:04:18;;;;;;;0.00;0.00;;;;;;;;;;5032930;28;20214;-83
2023/09/11 09:06:46;;;;;;;0.00;0.00;;;;;;;;;;5033257;28;20152;-83
2023/09/11 09:09:12;;;;;;;0.10;0.00;;;;;;;;;;5032792;28;20404;-83
2023/09/11 09:11:39;;;;;;;0.00;0.00;;;;;;;;;;5033247;28;20052;-83
2023/09/11 09:14:09;;;;;;;0.00;0.00;;;;;;;;;;5034023;28;20037;-83
2023/09/11 09:16:35;;;;;;;0.00;0.00;;;;;;;;;;5016509;28;20045;-83
2023/09/11 09:19:01;;;;;;;0.00;0.00;;;;;;;;;;5032664;28;20042;-83
2023/09/11 09:21:28;;;;;;;0.00;0.00;;;;;;;;;;5016532;28;20046;-84
2023/09/11 09:23:54;;;;;;;0.00;0.00;;;;;;;;;;5032507;28;20056;-84
2023/09/11 09:26:22;;;;;;;0.00;0.00;;;;;;;;;;5032661;28;20120;-84
2023/09/11 09:28:51;;;;;;;0.00;0.00;;;;;;;;;;5032259;28;20042;-84
2023/09/11 09:31:24;;;;;;;0.00;0.00;;;;;;;;;;5033843;28;20083;-84
2023/09/11 09:33:55;;;;;;;0.00;0.00;;;;;;;;;;5033765;28;20045;-84
2023/09/11 09:36:22;;;;;;;0.00;0.00;;;;;;;;;;5031770;28;20087;-84
2023/09/11 09:38:48;;;;;;;0.00;0.00;;;;;;;;;;5032415;28;20132;-84
2023/09/11 09:41:16;;;;;;;0.00;0.00;;;;;;;;;;5016086;28;20140;-84
2023/09/11 09:43:51;;;;;;;0.00;0.00;;;;;;;;;;5015729;28;20037;-83
2023/09/11 09:46:18;;;;;;;0.00;0.00;;;;;;;;;;5032494;28;20452;-83
2023/09/11 09:48:44;;;;;;;0.00;0.00;;;;;;;;;;5033474;28;20037;-84
2023/09/11 09:51:10;;;;;;;0.00;0.00;;;;;;;;;;5033310;28;20037;-83
2023/09/11 09:53:41;;;;;;;0.00;0.00;;;;;;;;;;5015415;28;20181;-83
2023/09/11 09:56:08;;;;;;;0.00;0.00;;;;;;;;;;5033444;28;20044;-83
2023/09/11 09:58:37;;;;;;;0.00;0.00;;;;;;;;;;5033216;28;20049;-84
2023/09/11 10:01:10;;;;;;;0.00;0.00;;;;;;;;;;5033222;28;20248;-83
2023/09/11 10:03:39;;;;;;;0.00;0.00;;;;;;;;;;5031904;28;20033;-84
2023/09/11 10:06:14;;;;;;;0.00;0.00;;;;;;;;;;5032169;28;20076;-83
2023/09/11 10:08:40;;;;;;;0.00;0.00;;;;;;;;;;5032997;28;20485;-83
2023/09/11 10:11:07;;;;;;;0.00;0.00;;;;;;;;;;5031662;28;20052;-84
2023/09/11 10:13:35;;;;;;;0.00;0.00;;;;;;;;;;5031830;28;20045;-83
2023/09/11 10:16:02;;;;;;;0.00;0.00;;;;;;;;;;5033169;28;20041;-83
2023/09/11 10:18:30;;;;;;;0.00;0.00;;;;;;;;;;5031659;28;20120;-83
2023/09/11 10:20:57;;;;;;;0.00;0.00;;;;;;;;;;5032642;28;20045;-82
2023/09/11 10:23:23;;;;;;;0.00;0.00;;;;;;;;;;5032777;28;20493;-83
2023/09/11 10:25:52;;;;;;;0.00;0.00;;;;;;;;;;5032783;28;20477;-84
2023/09/11 10:28:22;;;;;;;0.00;0.00;;;;;;;;;;5032772;28;20500;-84
2023/09/11 10:30:58;;;;;;;0.00;0.00;;;;;;;;;;5032550;28;20568;-84
2023/09/11 10:33:26;;;;;;;0.00;0.00;;;;;;;;;;5032687;28;20049;-83
2023/09/11 10:35:56;;;;;;;0.00;0.00;;;;;;;;;;5031060;28;20085;-84
2023/09/11 10:38:22;;;;;;;0.00;0.00;;;;;;;;;;5031800;28;20449;-83
2023/09/11 10:40:51;;;;;;;0.00;0.00;;;;;;;;;;5032576;28;20473;-84
2023/09/11 10:43:17;;;;;;;0.00;0.00;;;;;;;;;;5031462;28;20042;-83
2023/09/11 10:45:43;;;;;;;0.10;0.00;;;;;;;;;;5032309;28;20120;-84
2023/09/11 10:48:29;;;;;;;0.00;0.00;;;;;;;;;;5031001;28;20037;-83
2023/09/11 10:50:59;;;;;;;0.00;0.00;;;;;;;;;;5030851;28;20042;-83
2023/09/11 10:53:29;;;;;;;0.00;0.00;;;;;;;;;;5031258;28;20041;-84
2023/09/11 10:55:57;;;;;;;0.00;0.00;;;;;;;;;;5031213;28;20045;-85
2023/09/11 10:58:23;;;;;;;0.00;0.00;;;;;;;;;;5031144;28;20408;-84
2023/09/11 11:00:53;;;;;;;0.00;0.00;;;;;;;;;;5032161;28;20041;-83
2023/09/11 11:03:19;;;;;;;0.00;0.00;;;;;;;;;;5031604;28;20041;-84
2023/09/11 11:05:46;;;;;;;0.00;0.00;;;;;;;;;;5031021;28;20029;-85
2023/09/11 11:08:12;;;;;;;0.00;0.00;;;;;;;;;;5015559;28;20045;-83
2023/09/11 11:10:41;;;;;;;0.00;0.00;;;;;;;;;;5031263;28;20534;-84
2023/09/11 11:13:09;;;;;;;0.00;0.00;;;;;;;;;;5030979;28;20049;-85
2023/09/11 11:15:35;;;;;;;0.00;0.00;;;;;;;;;;5032324;28;20041;-84
2023/09/11 11:18:20;;;;;;;0.00;0.00;;;;;;;;;;5032403;28;20484;-84
2023/09/11 11:21:01;;;;;;;0.00;0.00;;;;;;;;;;5030767;28;20072;-84
2023/09/11 11:23:29;;;;;;;0.00;0.00;;;;;;;;;;5032371;28;20481;-83
2023/09/11 11:25:59;;;;;;;0.00;0.00;;;;;;;;;;5030964;28;20125;-84
2023/09/11 11:28:25;;;;;;;0.00;0.00;;;;;;;;;;5032333;28;20037;-84
2023/09/11 11:30:52;;;;;;;0.00;0.00;;;;;;;;;;5030768;28;20129;-84
2023/09/11 11:33:20;;;;;;;0.00;0.00;;;;;;;;;;5032148;28;20040;-84
2023/09/11 11:35:47;;;;;;;0.00;0.00;;;;;;;;;;5030813;28;20041;-84
2023/09/11 11:38:16;;;;;;;0.00;0.00;;;;;;;;;;5030654;28;20034;-84
2023/09/11 11:40:43;;;;;;;0.00;0.00;;;;;;;;;;5031843;28;20084;-84
2023/09/11 11:43:09;;;;;;;0.00;0.00;;;;;;;;;;5031044;28;20433;-84
2023/09/11 11:45:37;;;;;;;0.00;0.00;;;;;;;;;;5032005;28;20042;-84
2023/09/11 11:48:03;;;;;;;0.65;0.65;;;;;;;;;;5031127;28;20045;-83
2023/09/11 11:50:30;;;;;;;0.00;0.00;;;;;;;;;;5031727;28;20369;-84
2023/09/11 11:52:57;;;;;;;0.00;0.00;;;;;;;;;;5030742;28;20361;-84
2023/09/11 11:55:24;;;;;;;0.00;0.00;;;;;;;;;;5030376;28;20091;-84
2023/09/11 11:57:52;;;;;;;0.00;0.00;;;;;;;;;;5030674;28;20053;-84
2023/09/11 12:00:18;;;;;;;0.00;0.00;;;;;;;;;;5016662;28;20084;-84
2023/09/11 12:02:44;;;;;;;0.00;0.00;;;;;;;;;;5034620;28;20056;-84
2023/09/11 12:05:13;;;;;;;0.00;0.00;;;;;;;;;;5034332;28;20037;-84
2023/09/11 12:07:39;;;;;;;0.00;0.00;;;;;;;;;;5034211;28;20393;-84
2023/09/11 12:10:10;;;;;;;0.00;0.00;;;;;;;;;;5034122;28;20041;-84
2023/09/11 12:12:42;;;;;;;0.00;0.00;;;;;;;;;;5018357;28;20539;-84
2023/09/11 12:15:09;;;;;;;0.00;0.00;;;;;;;;;;5017799;28;20045;-84
2023/09/11 12:17:35;;;;;;;0.00;0.00;;;;;;;;;;5035558;28;20068;-84
2023/09/11 12:20:17;;;;;;;0.00;0.00;;;;;;;;;;5034115;28;20045;-85
2023/09/11 12:22:44;;;;;;;0.00;0.00;;;;;;;;;;5034234;28;20401;-86
2023/09/11 12:25:10;;;;;;;0.00;0.00;;;;;;;;;;5033943;28;20100;-86
2023/09/11 12:27:36;;;;;;;0.00;0.00;;;;;;;;;;5035243;28;20048;-85
2023/09/11 12:30:05;;;;;;;0.00;0.00;;;;;;;;;;5035194;28;20049;-86
2023/09/11 12:32:31;;;;;;;0.00;0.00;;;;;;;;;;5034176;28;20049;-85
2023/09/11 12:34:57;;;;;;;0.00;0.00;;;;;;;;;;5034253;28;20095;-86
2023/09/11 12:37:23;;;;;;;0.00;0.00;;;;;;;;;;5034556;28;20120;-86
2023/09/11 12:39:50;;;;;;;0.00;0.00;;;;;;;;;;5034248;28;20046;-86
2023/09/11 12:42:20;;;;;;;0.00;0.00;;;;;;;;;;5034405;28;20496;-85
2023/09/11 12:44:47;;;;;;;0.00;0.00;;;;;;;;;;5034036;28;20041;-86
2023/09/11 12:47:13;;;;;;;0.00;0.00;;;;;;;;;;5033758;28;20042;-85
2023/09/11 12:49:39;;;;;;;0.00;0.00;;;;;;;;;;5033539;28;20080;-85
2023/09/11 12:52:05;;;;;;;0.00;0.00;;;;;;;;;;5033627;28;20045;-85
2023/09/11 12:54:31;;;;;;;0.00;0.00;;;;;;;;;;5034956;28;20037;-86
2023/09/11 12:57:01;;;;;;;0.00;0.00;;;;;;;;;;5033368;28;20555;-87
2023/09/11 12:59:27;;;;;;;0.00;0.00;;;;;;;;;;5034341;28;20053;-85
2023/09/11 13:01:56;;;;;;;0.00;0.00;;;;;;;;;;5034569;28;20076;-85
2023/09/11 13:04:23;;;;;;;0.00;0.00;;;;;;;;;;5033359;28;20049;-87
2023/09/11 13:06:51;;;;;;;0.00;0.00;;;;;;;;;;5034395;28;20397;-87
2023/09/11 13:09:20;;;;;;;0.00;0.00;;;;;;;;;;5033638;28;20046;-85
2023/09/11 13:11:46;;;;;;;0.00;0.00;;;;;;;;;;5034194;28;20052;-86
2023/09/11 13:14:12;;;;;;;0.00;0.00;;;;;;;;;;5033193;28;20492;-87
2023/09/11 13:16:38;;;;;;;0.00;0.00;;;;;;;;;;5034285;28;20041;-84
2023/09/11 13:19:04;;;;;;;0.00;0.00;;;;;;;;;;5033033;28;20033;-86
2023/09/11 13:21:30;;;;;;;0.00;0.00;;;;;;;;;;5034185;28;20044;-86
2023/09/11 13:23:56;;;;;;;0.00;0.00;;;;;;;;;;5032793;28;20038;-85
2023/09/11 13:26:22;;;;;;;0.00;0.00;;;;;;;;;;5033988;28;20124;-85
2023/09/11 13:28:48;;;;;;;0.00;0.00;;;;;;;;;;5034494;28;20459;-86
2023/09/11 13:31:14;;;;;;;0.00;0.00;;;;;;;;;;5032604;28;20047;-86
2023/09/11 13:33:42;;;;;;;0.00;0.00;;;;;;;;;;5034162;28;20037;-86
2023/09/11 13:36:08;;;;;;;0.00;0.00;;;;;;;;;;5033768;28;20493;-85
2023/09/11 13:38:34;;;;;;;0.00;0.00;;;;;;;;;;5032979;28;20112;-85
2023/09/11 13:41:00;;;;;;;0.00;0.00;;;;;;;;;;5032188;28;20045;-87
2023/09/11 13:43:26;;;;;;;0.00;0.00;;;;;;;;;;5032524;28;20063;-86
2023/09/11 13:45:52;;;;;;;0.00;0.00;;;;;;;;;;5033829;28;20120;-86
2023/09/11 13:48:18;;;;;;;0.00;0.00;;;;;;;;;;5033701;28;20037;-87
2023/09/11 13:50:44;;;;;;;0.00;0.00;;;;;;;;;;5033442;28;20052;-86
2023/09/11 13:53:10;;;;;;;0.00;0.00;;;;;;;;;;5033589;28;20041;-87
2023/09/11 13:55:38;;;;;;;0.00;0.00;;;;;;;;;;5032052;28;20120;-86
2023/09/11 13:58:05;;;;;;;0.00;0.00;;;;;;;;;;5032400;28;20049;-86
2023/09/11 14:00:31;;;;;;;0.00;0.00;;;;;;;;;;5033606;28;20116;-86
2023/09/11 14:02:57;;;;;;;0.00;0.00;;;;;;;;;;5033513;28;20057;-85
2023/09/11 14:05:23;;;;;;;0.00;0.00;;;;;;;;;;5032288;28;20041;-85
2023/09/11 14:07:49;;;;;;;0.00;0.00;;;;;;;;;;5031739;28;20045;-85
2023/09/11 14:10:15;;;;;;;0.00;0.00;;;;;;;;;;5031821;28;20129;-86
2023/09/11 14:12:41;;;;;;;0.00;0.00;;;;;;;;;;5031702;28;20045;-87
2023/09/11 14:15:08;;;;;;;0.00;0.00;;;;;;;;;;5032067;28;20120;-86
2023/09/11 14:17:34;;;;;;;0.90;0.00;;;;;;;;;;5031889;28;20064;-88
2023/09/11 14:20:00;;;;;;;0.00;0.00;;;;;;;;;;5033036;28;20042;-87
2023/09/11 14:22:26;;;;;;;0.00;0.00;;;;;;;;;;5031414;28;20120;-87
2023/09/11 14:24:52;;;;;;;0.00;0.00;;;;;;;;;;5031480;28;20444;-87
2023/09/11 14:27:18;;;;;;;0.00;0.00;;;;;;;;;;5033092;28;20080;-87
2023/09/11 14:29:44;;;;;;;0.30;0.10;;;;;;;;;;5031703;28;20553;-87
2023/09/11 14:32:10;;;;;;;0.00;0.00;;;;;;;;;;5031306;28;20095;-88
2023/09/11 14:34:36;;;;;;;0.00;0.00;;;;;;;;;;5031522;28;20046;-88
2023/09/11 14:37:02;;;;;;;0.00;0.00;;;;;;;;;;5031619;28;20455;-85
2023/09/11 14:39:28;;;;;;;0.00;0.00;;;;;;;;;;5032657;28;20201;-86
2023/09/11 14:41:54;;;;;;;0.00;0.00;;;;;;;;;;5031372;28;20089;-86